createdAt,value
2023-04-08T00:00:43.639Z,100835.38
2023-04-08T00:03:27.509Z,100839.78
2023-04-08T00:06:13.823Z,100833.34
2023-04-08T00:08:57.064Z,100842.56
2023-04-08T00:11:41.336Z,100837.72
2023-04-08T00:14:25.048Z,100831.66
2023-04-08T00:17:07.483Z,100833.66
2023-04-08T00:19:56.489Z,100839.69
2023-04-08T00:22:45.760Z,100833.22
2023-04-08T00:25:25.423Z,100832.81
2023-04-08T00:28:09.418Z,100830.78
2023-04-08T00:30:47.680Z,100827.16
2023-04-08T00:33:25.739Z,100825.16
2023-04-08T00:36:12.438Z,100824.31
2023-04-08T00:38:56.229Z,100829.13
2023-04-08T00:41:41.846Z,100818.66
2023-04-08T00:44:25.743Z,100822.28
2023-04-08T00:47:11.720Z,100823.16
2023-04-08T00:49:55.434Z,100823.53
2023-04-08T00:52:32.131Z,100821.06
2023-04-08T00:55:14.373Z,100816.94
2023-04-08T00:58:04.138Z,100826.16
2023-04-08T01:00:48.469Z,100825.81
2023-04-08T01:03:52.467Z,100825.41
2023-04-08T01:06:48.002Z,100827.81
2023-04-08T01:09:39.310Z,100825.06
2023-04-08T01:12:30.143Z,100821.84
2023-04-08T01:15:13.160Z,100821.53
2023-04-08T01:17:50.546Z,100819.56
2023-04-08T01:20:32.000Z,100824.00
2023-04-08T01:23:33.059Z,100817.94
2023-04-08T01:26:18.751Z,100814.66
2023-04-08T01:29:06.499Z,100816.94
2023-04-08T01:31:48.706Z,100818.91
2023-04-08T01:34:33.794Z,100816.50
2023-04-08T01:37:20.314Z,100813.25
2023-04-08T01:40:00.367Z,100814.03
2023-04-08T01:42:46.707Z,100810.41
2023-04-08T01:45:31.675Z,100820.94
2023-04-08T01:48:08.535Z,100816.81
2023-04-08T01:50:48.449Z,100817.66
2023-04-08T01:53:26.577Z,100817.63
2023-04-08T01:56:09.077Z,100816.06
2023-04-08T01:59:25.620Z,100817.63
2023-04-08T02:02:09.208Z,100817.63
2023-04-08T02:04:50.516Z,100818.78
2023-04-08T02:07:32.402Z,100814.72
2023-04-08T02:10:10.900Z,100818.69
2023-04-08T02:12:55.269Z,100806.16
2023-04-08T02:15:45.468Z,100815.88
2023-04-08T02:18:35.241Z,100819.84
2023-04-08T02:21:24.105Z,100822.66
2023-04-08T02:24:09.312Z,100811.81
2023-04-08T02:26:51.629Z,100822.31
2023-04-08T02:29:40.950Z,100823.44
2023-04-08T02:32:21.344Z,100823.88
2023-04-08T02:35:04.206Z,100817.00
2023-04-08T02:37:48.957Z,100825.06
2023-04-08T02:40:35.523Z,100815.78
2023-04-08T02:43:20.648Z,100818.25
2023-04-08T02:45:59.601Z,100818.56
2023-04-08T02:48:40.981Z,100821.38
2023-04-08T02:51:19.590Z,100814.88
2023-04-08T02:53:59.709Z,100807.19
2023-04-08T02:56:38.444Z,100810.47
2023-04-08T02:59:27.222Z,100810.47
2023-04-08T03:02:08.313Z,100801.56
2023-04-08T03:04:57.703Z,100805.19
2023-04-08T03:07:38.677Z,100806.75
2023-04-08T03:10:18.591Z,100808.81
2023-04-08T03:12:57.367Z,100802.75
2023-04-08T03:15:38.614Z,100799.50
2023-04-08T03:18:18.622Z,100804.28
2023-04-08T03:21:04.075Z,100798.69
2023-04-08T03:23:44.702Z,100809.97
2023-04-08T03:26:29.224Z,100807.94
2023-04-08T03:29:06.966Z,100807.91
2023-04-08T03:31:52.104Z,100804.69
2023-04-08T03:34:33.053Z,100803.06
2023-04-08T03:37:11.755Z,100803.47
2023-04-08T03:39:50.777Z,100803.53
2023-04-08T03:42:35.647Z,100805.47
2023-04-08T03:45:11.355Z,100813.84
2023-04-08T03:47:55.124Z,100811.41
2023-04-08T03:50:31.344Z,100816.28
2023-04-08T03:53:16.679Z,100819.13
2023-04-08T03:55:53.672Z,100823.53
2023-04-08T03:58:37.455Z,100813.84
2023-04-08T04:01:22.725Z,100820.31
2023-04-08T04:04:05.013Z,100821.94
2023-04-08T04:06:40.512Z,100822.78
2023-04-08T04:09:24.671Z,100825.19
2023-04-08T04:12:05.910Z,100824.00
2023-04-08T04:14:49.103Z,100826.84
2023-04-08T04:17:35.491Z,100829.72
2023-04-08T04:20:16.882Z,100824.91
2023-04-08T04:22:57.251Z,100816.44
2023-04-08T04:25:41.910Z,100823.22
2023-04-08T04:28:20.723Z,100830.16
2023-04-08T04:31:09.257Z,100824.09
2023-04-08T04:33:45.560Z,100836.09
2023-04-08T04:36:24.207Z,100841.78
2023-04-08T04:39:08.120Z,100838.94
2023-04-08T04:41:51.989Z,100841.69
2023-04-08T04:44:33.123Z,100838.13
2023-04-08T04:47:16.477Z,100849.75
2023-04-08T04:50:03.192Z,100850.94
2023-04-08T04:52:43.675Z,100851.69
2023-04-08T04:55:32.075Z,100850.44
2023-04-08T04:58:11.789Z,100853.34
2023-04-08T05:00:54.071Z,100855.78
2023-04-08T05:03:33.057Z,100869.78
2023-04-08T05:06:20.297Z,100859.28
2023-04-08T05:09:09.768Z,100866.97
2023-04-08T05:11:45.306Z,100868.97
2023-04-08T05:14:26.799Z,100877.84
2023-04-08T05:17:07.997Z,100877.38
2023-04-08T05:19:51.621Z,100872.16
2023-04-08T05:22:38.901Z,100871.00
2023-04-08T05:25:25.456Z,100874.56
2023-04-08T05:28:12.986Z,100875.72
2023-04-08T05:31:02.188Z,100880.19
2023-04-08T05:33:47.222Z,100876.53
2023-04-08T05:36:34.138Z,100881.16
2023-04-08T05:39:15.913Z,100889.16
2023-04-08T05:41:56.837Z,100903.63
2023-04-08T05:44:44.534Z,100902.44
2023-04-08T05:47:28.871Z,100911.28
2023-04-08T05:50:08.008Z,100909.66
2023-04-08T05:52:48.878Z,100912.84
2023-04-08T05:55:30.060Z,100918.53
2023-04-08T05:58:14.062Z,100915.28
2023-04-08T06:00:55.344Z,100919.72
2023-04-08T06:03:40.644Z,100921.72
2023-04-08T06:06:21.526Z,100926.09
2023-04-08T06:09:00.916Z,100921.28
2023-04-08T06:11:49.867Z,100921.72
2023-04-08T06:14:36.726Z,100921.34
2023-04-08T06:17:17.262Z,100920.13
2023-04-08T06:20:03.112Z,100924.09
2023-04-08T06:22:38.141Z,100939.03
2023-04-08T06:25:10.302Z,100936.38
2023-04-08T06:27:49.019Z,100937.53
2023-04-08T06:30:24.246Z,100926.72
2023-04-08T06:32:55.557Z,100926.72
2023-04-08T06:35:32.640Z,100936.84
2023-04-08T06:38:06.042Z,100937.72
2023-04-08T06:40:43.065Z,100933.28
2023-04-08T06:43:21.305Z,100933.06
2023-04-08T06:45:54.667Z,100928.63
2023-04-08T06:48:30.347Z,100932.72
2023-04-08T06:51:07.920Z,100930.25
2023-04-08T06:53:46.713Z,100932.31
2023-04-08T06:56:21.540Z,100942.78
2023-04-08T06:58:57.314Z,100940.47
2023-04-08T07:01:32.103Z,100945.66
2023-04-08T07:04:03.314Z,100936.00
2023-04-08T07:06:41.636Z,100944.03
2023-04-08T07:09:15.090Z,100950.09
2023-04-08T07:11:55.649Z,100940.06
2023-04-08T07:14:34.245Z,100939.22
2023-04-08T07:17:09.839Z,100946.47
2023-04-08T07:19:46.042Z,100944.84
2023-04-08T07:22:22.647Z,100944.44
2023-04-08T07:24:58.184Z,100942.88
2023-04-08T07:27:34.708Z,100938.06
2023-04-08T07:30:07.916Z,100940.06
2023-04-08T07:32:46.965Z,100944.72
2023-04-08T07:35:29.777Z,100947.19
2023-04-08T07:38:12.296Z,100954.06
2023-04-08T07:40:42.854Z,100957.34
2023-04-08T07:43:21.791Z,100953.75
2023-04-08T07:45:55.028Z,100953.38
2023-04-08T07:48:35.012Z,100957.88
2023-04-08T07:51:20.208Z,100961.56
2023-04-08T07:53:58.264Z,100959.66
2023-04-08T07:56:26.996Z,100961.97
2023-04-08T07:59:05.818Z,100966.03
2023-04-08T08:01:36.555Z,100964.47
2023-04-08T08:04:13.881Z,100961.75
2023-04-08T08:06:58.411Z,100963.31
2023-04-08T08:09:34.554Z,100956.97
2023-04-08T08:12:15.485Z,100958.69
2023-04-08T08:14:54.954Z,100953.06
2023-04-08T08:17:33.666Z,100953.09
2023-04-08T08:20:10.751Z,100950.72
2023-04-08T08:22:56.620Z,100950.81
2023-04-08T08:25:30.951Z,100952.38
2023-04-08T08:28:08.069Z,100944.84
2023-04-08T08:30:44.102Z,100950.47
2023-04-08T08:33:12.224Z,100952.47
2023-04-08T08:35:51.073Z,100954.09
2023-04-08T08:38:27.497Z,100957.41
2023-04-08T08:41:05.830Z,100957.41
2023-04-08T08:43:41.767Z,100961.88
2023-04-08T08:46:24.171Z,100965.06
2023-04-08T08:48:57.256Z,100957.47
2023-04-08T08:51:30.564Z,100953.41
2023-04-08T08:54:09.336Z,100958.53
2023-04-08T08:56:44.340Z,100961.38
2023-04-08T08:59:23.868Z,100964.69
2023-04-08T09:02:19.222Z,100959.09
2023-04-08T09:05:29.336Z,100962.69
2023-04-08T09:25:24.066Z,100953.00
2023-04-08T13:02:43.461Z,100851.31
2023-04-08T13:22:00.625Z,100840.88
2023-04-08T13:24:38.321Z,100846.53
2023-04-08T13:27:16.424Z,100845.28
2023-04-08T13:29:53.458Z,100846.50
2023-04-08T13:32:26.512Z,100838.88
2023-04-08T13:34:59.358Z,100838.91
2023-04-08T13:37:32.303Z,100831.69
2023-04-08T13:40:08.930Z,100831.69
2023-04-08T13:42:48.862Z,100825.59
2023-04-08T13:45:31.891Z,100821.94
2023-04-08T13:48:05.044Z,100822.72
2023-04-08T13:50:41.752Z,100820.72
2023-04-08T13:53:19.796Z,100823.53
2023-04-08T13:55:56.045Z,100815.44
2023-04-08T13:58:28.972Z,100826.38
2023-04-08T14:01:01.841Z,100824.75
2023-04-08T14:03:40.482Z,100815.50
2023-04-08T14:06:18.592Z,100819.53
2023-04-08T14:08:54.642Z,100815.88
2023-04-08T14:11:27.269Z,100817.13
2023-04-08T14:14:02.963Z,100812.72
2023-04-08T14:16:38.730Z,100807.75
2023-04-08T14:19:21.447Z,100813.47
2023-04-08T14:22:02.626Z,100800.19
2023-04-08T14:24:38.133Z,100808.63
2023-04-08T14:27:13.366Z,100809.47
2023-04-08T14:29:54.972Z,100809.88
2023-04-08T14:32:34.577Z,100803.84
2023-04-08T14:35:10.530Z,100811.13
2023-04-08T14:37:40.911Z,100806.28
2023-04-08T14:40:18.964Z,100810.72
2023-04-08T14:42:57.630Z,100811.16
2023-04-08T14:45:33.132Z,100810.34
2023-04-08T14:48:06.769Z,100806.28
2023-04-08T14:50:42.437Z,100796.22
2023-04-08T14:53:17.999Z,100800.22
2023-04-08T14:55:56.384Z,100805.13
2023-04-08T14:58:33.821Z,100813.97
2023-04-08T15:01:09.518Z,100815.97
2023-04-08T15:03:42.282Z,100809.06
2023-04-08T15:06:17.834Z,100813.47
2023-04-08T15:08:53.754Z,100817.53
2023-04-08T15:11:32.432Z,100815.88
2023-04-08T15:14:04.341Z,100815.84
2023-04-08T15:16:40.107Z,100824.75
2023-04-08T15:19:18.580Z,100824.75
2023-04-08T15:21:51.337Z,100821.97
2023-04-08T15:24:27.384Z,100826.81
2023-04-08T15:27:02.995Z,100825.19
2023-04-08T15:29:42.876Z,100834.44
2023-04-08T15:32:20.087Z,100831.22
2023-04-08T15:34:55.856Z,100836.09
2023-04-08T15:37:28.559Z,100836.53
2023-04-08T15:40:12.168Z,100838.94
2023-04-08T15:42:40.445Z,100849.84
2023-04-08T15:45:13.768Z,100846.19
2023-04-08T15:47:50.623Z,100844.56
2023-04-08T15:50:40.852Z,100844.97
2023-04-08T15:53:19.821Z,100846.94
2023-04-08T15:55:58.056Z,100847.75
2023-04-08T15:58:25.919Z,100861.03
2023-04-08T16:01:10.760Z,100861.44
2023-04-08T16:03:46.501Z,100866.66
2023-04-08T16:06:24.249Z,100869.88
2023-04-08T16:08:57.343Z,100890.47
2023-04-08T16:11:36.698Z,100907.38
2023-04-08T16:14:14.523Z,100917.81
2023-04-08T16:16:51.365Z,100927.91
2023-04-08T16:19:27.497Z,100933.56
2023-04-08T16:22:08.195Z,100938.38
2023-04-08T16:24:41.170Z,100939.63
2023-04-08T16:27:17.169Z,100942.47
2023-04-08T16:29:52.426Z,100950.09
2023-04-08T16:32:23.969Z,100959.41
2023-04-08T16:35:06.700Z,100961.34
2023-04-08T16:37:42.695Z,100965.34
2023-04-08T16:40:18.167Z,100966.19
2023-04-08T16:42:51.081Z,100973.41
2023-04-08T16:45:23.937Z,100973.72
2023-04-08T16:48:00.551Z,100977.34
2023-04-08T16:50:40.388Z,100980.19
2023-04-08T16:53:16.325Z,100984.28
2023-04-08T16:55:55.090Z,100992.31
2023-04-08T16:58:33.688Z,100989.88
2023-04-08T17:01:12.036Z,100996.25
2023-04-08T17:03:52.386Z,100997.84
2023-04-08T17:06:28.412Z,101001.03
2023-04-08T17:09:04.104Z,101001.41
2023-04-08T17:11:42.333Z,101011.09
2023-04-08T17:14:18.154Z,101014.38
2023-04-08T17:16:54.216Z,101008.34
2023-04-08T17:19:30.096Z,101027.25
2023-04-08T17:22:06.127Z,101012.66
2023-04-08T17:24:41.210Z,101025.25
2023-04-08T17:27:23.024Z,101023.28
2023-04-08T17:30:01.675Z,101027.28
2023-04-08T17:32:40.622Z,101037.28
2023-04-08T17:35:16.282Z,101036.47
2023-04-08T17:37:50.295Z,101030.00
2023-04-08T17:40:22.872Z,101034.47
2023-04-08T17:42:55.347Z,101034.47
2023-04-08T17:45:28.176Z,101038.47
2023-04-08T17:48:06.868Z,101040.44
2023-04-08T17:50:50.735Z,101045.31
2023-04-08T17:53:27.135Z,101045.31
2023-04-08T17:56:06.277Z,101044.09
2023-04-08T17:58:48.941Z,101041.28
2023-04-08T18:01:27.779Z,101048.19
2023-04-08T18:04:10.289Z,101043.78
2023-04-08T18:06:46.922Z,101046.22
2023-04-08T18:09:28.543Z,101042.56
2023-04-08T18:12:07.750Z,101049.75
2023-04-08T18:14:44.032Z,101047.38
2023-04-08T18:17:20.482Z,101043.34
2023-04-08T18:20:02.653Z,101043.75
2023-04-08T18:22:41.775Z,101035.28
2023-04-08T18:25:19.721Z,101042.94
2023-04-08T18:28:02.836Z,101046.59
2023-04-08T18:30:43.795Z,101054.66
2023-04-08T18:33:19.586Z,101060.72
2023-04-08T18:35:59.547Z,101072.06
2023-04-08T18:38:40.230Z,101076.44
2023-04-08T18:41:20.949Z,101083.72
2023-04-08T18:44:04.158Z,101092.59
2023-04-08T18:46:42.624Z,101092.19
2023-04-08T18:49:20.525Z,101104.28
2023-04-08T18:52:03.673Z,101103.91
2023-04-08T18:54:44.220Z,101103.94
2023-04-08T18:57:25.102Z,101103.53
2023-04-08T19:00:04.925Z,101103.56
2023-04-08T19:02:43.453Z,101112.72
2023-04-08T19:05:23.747Z,101119.91
2023-04-08T19:08:06.377Z,101125.28
2023-04-08T19:10:45.311Z,101126.88
2023-04-08T19:13:26.992Z,101129.63
2023-04-08T19:16:05.369Z,101134.03
2023-04-08T19:18:38.209Z,101136.09
2023-04-08T19:21:15.118Z,101140.13
2023-04-08T19:23:56.124Z,101142.03
2023-04-08T19:26:36.200Z,101136.91
2023-04-08T19:29:13.093Z,101138.53
2023-04-08T19:31:55.912Z,101138.97
2023-04-08T19:34:34.689Z,101140.53
2023-04-08T19:37:10.848Z,101151.31
2023-04-08T19:39:52.878Z,101147.75
2023-04-08T19:42:29.602Z,101146.44
2023-04-08T19:45:06.223Z,101157.34
2023-04-08T19:47:50.888Z,101163.44
2023-04-08T19:50:32.901Z,101162.56
2023-04-08T19:53:11.796Z,101165.81
2023-04-08T19:55:47.450Z,101165.78
2023-04-08T19:58:25.823Z,101162.47
2023-04-08T20:01:06.714Z,101158.22
2023-04-08T20:03:44.490Z,101161.34
2023-04-08T20:06:23.319Z,101159.72
2023-04-08T20:08:57.728Z,101166.84
2023-04-08T20:11:42.334Z,101165.63
2023-04-08T20:14:16.998Z,101162.81
2023-04-08T20:16:53.401Z,101157.97
2023-04-08T20:19:31.795Z,101163.22
2023-04-08T20:22:10.689Z,101170.06
2023-04-08T20:24:49.018Z,101168.47
2023-04-08T20:27:35.716Z,101173.19
2023-04-08T20:30:09.494Z,101166.38
2023-04-08T20:32:40.341Z,101166.38
2023-04-08T20:35:16.942Z,101173.66
2023-04-08T20:37:51.625Z,101176.78
2023-04-08T20:40:23.455Z,101173.25
2023-04-08T20:42:58.220Z,101176.91
2023-04-08T20:45:34.162Z,101177.69
2023-04-08T20:48:09.929Z,101182.50
2023-04-08T20:50:53.686Z,101181.31
2023-04-08T20:53:34.445Z,101184.63
2023-04-08T20:56:10.389Z,101179.75
2023-04-08T20:58:46.355Z,101184.94
2023-04-08T21:01:21.672Z,101169.53
2023-04-08T21:03:59.751Z,101174.84
2023-04-08T21:06:45.671Z,101179.25
2023-04-08T21:09:18.734Z,101172.41
2023-04-08T21:12:04.727Z,101172.44
2023-04-08T21:14:40.631Z,101170.03
2023-04-08T21:17:22.379Z,101173.25
2023-04-08T21:19:57.858Z,101172.34
2023-04-08T21:22:33.208Z,101179.25
2023-04-08T21:25:13.785Z,101178.84
2023-04-08T21:27:49.448Z,101178.09
2023-04-08T21:30:22.537Z,101176.34
2023-04-08T21:33:03.645Z,101176.47
2023-04-08T21:35:42.998Z,101180.91
2023-04-08T21:38:21.679Z,101178.44
2023-04-08T21:41:01.177Z,101167.09
2023-04-08T21:43:37.034Z,101176.41
2023-04-08T21:46:15.986Z,101174.84
2023-04-08T21:48:48.756Z,101175.56
2023-04-08T21:51:24.353Z,101182.38
2023-04-08T21:53:57.237Z,101173.91
2023-04-08T21:56:29.664Z,101182.00
2023-04-08T21:59:02.701Z,101180.34
2023-04-08T22:01:41.499Z,101190.13
2023-04-08T22:04:20.153Z,101185.25
2023-04-08T22:06:56.302Z,101182.81
2023-04-08T22:09:37.510Z,101188.47
2023-04-08T22:12:11.200Z,101188.06
2023-04-08T22:14:43.728Z,101189.31
2023-04-08T22:17:17.956Z,101189.38
2023-04-08T22:19:54.473Z,101188.25
2023-04-08T22:22:29.481Z,101194.25
2023-04-08T22:25:04.826Z,101191.88
2023-04-08T22:27:46.111Z,101188.00
2023-04-08T22:30:27.577Z,101188.75
2023-04-08T22:33:06.348Z,101187.59
2023-04-08T22:35:45.578Z,101184.38
2023-04-08T22:38:23.535Z,101186.38
2023-04-08T22:41:18.456Z,101175.97
2023-04-08T22:43:51.468Z,101188.09
2023-04-08T22:46:26.734Z,101188.00
2023-04-08T22:49:02.477Z,101180.84
2023-04-08T22:51:38.319Z,101187.25
2023-04-08T22:54:28.078Z,101184.06
2023-04-08T22:57:06.882Z,101178.84
2023-04-08T22:59:42.630Z,101182.34
2023-04-08T23:02:15.791Z,101185.19
2023-04-08T23:04:53.295Z,101178.41
2023-04-08T23:07:29.181Z,101179.97
2023-04-08T23:10:04.646Z,101182.06
2023-04-08T23:12:43.145Z,101186.88
2023-04-08T23:15:21.588Z,101182.00
2023-04-08T23:18:00.390Z,101183.56
2023-04-08T23:20:35.503Z,101188.00
2023-04-08T23:23:10.878Z,101194.41
2023-04-08T23:25:55.865Z,101196.47
2023-04-08T23:28:29.175Z,101189.44
2023-04-08T23:31:13.052Z,101192.66
2023-04-08T23:33:51.839Z,101200.66
2023-04-08T23:36:29.804Z,101201.41
2023-04-08T23:39:05.788Z,101205.06
2023-04-08T23:41:41.395Z,101204.56
2023-04-08T23:44:16.312Z,101197.28
2023-04-08T23:46:51.937Z,101195.72
2023-04-08T23:49:27.058Z,101209.34
2023-04-08T23:52:04.834Z,101198.06
2023-04-08T23:54:40.344Z,101203.31
2023-04-08T23:57:16.600Z,101196.41
2023-04-08T23:59:52.347Z,101200.88
